sensor_id;sensor_type;location;lat;lon;timestamp;P1;durP1;ratioP1;P2;durP2;ratioP2
61907;SDS011;47864;52.526;19.672;2023-05-10T00:01:41;9.57;;;5.72;;
61907;SDS011;47864;52.526;19.672;2023-05-10T00:03:42;13.18;;;6.70;;
61907;SDS011;47864;52.526;19.672;2023-05-10T00:05:44;10.70;;;6.32;;
61907;SDS011;47864;52.526;19.672;2023-05-10T00:07:46;12.10;;;6.78;;
61907;SDS011;47864;52.526;19.672;2023-05-10T00:09:47;13.38;;;6.97;;
61907;SDS011;47864;52.526;19.672;2023-05-10T00:11:49;14.38;;;7.55;;
61907;SDS011;47864;52.526;19.672;2023-05-10T00:13:51;12.30;;;7.78;;
61907;SDS011;47864;52.526;19.672;2023-05-10T00:15:52;14.60;;;7.28;;
61907;SDS011;47864;52.526;19.672;2023-05-10T00:17:54;12.50;;;7.53;;
61907;SDS011;47864;52.526;19.672;2023-05-10T00:19:55;14.43;;;7.40;;
61907;SDS011;47864;52.526;19.672;2023-05-10T00:21:57;16.80;;;7.53;;
61907;SDS011;47864;52.526;19.672;2023-05-10T00:23:58;14.85;;;6.72;;
61907;SDS011;47864;52.526;19.672;2023-05-10T00:26:00;9.93;;;6.18;;
61907;SDS011;47864;52.526;19.672;2023-05-10T00:28:02;13.63;;;7.25;;
61907;SDS011;47864;52.526;19.672;2023-05-10T00:30:03;10.50;;;6.95;;
61907;SDS011;47864;52.526;19.672;2023-05-10T00:32:05;14.07;;;7.22;;
61907;SDS011;47864;52.526;19.672;2023-05-10T00:34:07;13.15;;;7.30;;
61907;SDS011;47864;52.526;19.672;2023-05-10T00:36:09;11.93;;;7.25;;
61907;SDS011;47864;52.526;19.672;2023-05-10T00:38:10;12.50;;;6.55;;
61907;SDS011;47864;52.526;19.672;2023-05-10T00:40:12;11.60;;;6.65;;
61907;SDS011;47864;52.526;19.672;2023-05-10T00:42:14;11.80;;;7.53;;
61907;SDS011;47864;52.526;19.672;2023-05-10T00:44:16;15.35;;;7.30;;
61907;SDS011;47864;52.526;19.672;2023-05-10T00:46:17;11.80;;;8.00;;
61907;SDS011;47864;52.526;19.672;2023-05-10T00:48:20;12.35;;;7.65;;
61907;SDS011;47864;52.526;19.672;2023-05-10T00:50:22;13.13;;;7.78;;
61907;SDS011;47864;52.526;19.672;2023-05-10T00:52:24;11.45;;;7.20;;
61907;SDS011;47864;52.526;19.672;2023-05-10T00:54:26;12.50;;;7.57;;
61907;SDS011;47864;52.526;19.672;2023-05-10T00:56:27;14.27;;;7.93;;
61907;SDS011;47864;52.526;19.672;2023-05-10T00:58:29;13.93;;;7.47;;
61907;SDS011;47864;52.526;19.672;2023-05-10T01:00:31;12.02;;;8.60;;
61907;SDS011;47864;52.526;19.672;2023-05-10T01:02:34;15.75;;;8.77;;
61907;SDS011;47864;52.526;19.672;2023-05-10T01:04:35;14.20;;;8.93;;
61907;SDS011;47864;52.526;19.672;2023-05-10T01:06:39;14.45;;;8.60;;
61907;SDS011;47864;52.526;19.672;2023-05-10T01:08:41;16.98;;;9.15;;
61907;SDS011;47864;52.526;19.672;2023-05-10T01:10:42;15.07;;;8.60;;
61907;SDS011;47864;52.526;19.672;2023-05-10T01:12:45;14.18;;;8.45;;
61907;SDS011;47864;52.526;19.672;2023-05-10T01:14:47;19.17;;;9.07;;
61907;SDS011;47864;52.526;19.672;2023-05-10T01:16:49;15.25;;;9.38;;
61907;SDS011;47864;52.526;19.672;2023-05-10T01:18:51;13.50;;;9.20;;
61907;SDS011;47864;52.526;19.672;2023-05-10T01:21:01;14.73;;;8.82;;
61907;SDS011;47864;52.526;19.672;2023-05-10T01:25:28;14.48;;;8.95;;
61907;SDS011;47864;52.526;19.672;2023-05-10T01:30:01;15.52;;;8.32;;
61907;SDS011;47864;52.526;19.672;2023-05-10T01:32:19;15.90;;;9.35;;
61907;SDS011;47864;52.526;19.672;2023-05-10T01:34:27;13.75;;;9.05;;
61907;SDS011;47864;52.526;19.672;2023-05-10T01:36:45;16.02;;;9.02;;
61907;SDS011;47864;52.526;19.672;2023-05-10T01:41:24;13.55;;;9.45;;
61907;SDS011;47864;52.526;19.672;2023-05-10T01:43:30;14.63;;;9.43;;
61907;SDS011;47864;52.526;19.672;2023-05-10T01:45:39;15.05;;;9.93;;
61907;SDS011;47864;52.526;19.672;2023-05-10T01:47:50;14.55;;;9.30;;
61907;SDS011;47864;52.526;19.672;2023-05-10T01:49:58;14.60;;;9.75;;
61907;SDS011;47864;52.526;19.672;2023-05-10T01:52:07;12.98;;;9.27;;
61907;SDS011;47864;52.526;19.672;2023-05-10T01:54:11;17.00;;;9.13;;
61907;SDS011;47864;52.526;19.672;2023-05-10T01:56:15;16.48;;;9.77;;
61907;SDS011;47864;52.526;19.672;2023-05-10T01:58:22;13.43;;;9.10;;
61907;SDS011;47864;52.526;19.672;2023-05-10T02:00:28;14.18;;;9.32;;
61907;SDS011;47864;52.526;19.672;2023-05-10T02:02:33;15.82;;;8.93;;
61907;SDS011;47864;52.526;19.672;2023-05-10T02:04:41;13.73;;;8.75;;
61907;SDS011;47864;52.526;19.672;2023-05-10T02:06:43;14.27;;;8.60;;
61907;SDS011;47864;52.526;19.672;2023-05-10T02:08:47;13.70;;;9.18;;
61907;SDS011;47864;52.526;19.672;2023-05-10T02:10:52;18.30;;;9.10;;
61907;SDS011;47864;52.526;19.672;2023-05-10T02:12:58;14.55;;;9.07;;
61907;SDS011;47864;52.526;19.672;2023-05-10T02:15:00;13.05;;;9.20;;
61907;SDS011;47864;52.526;19.672;2023-05-10T02:17:05;13.73;;;8.95;;
61907;SDS011;47864;52.526;19.672;2023-05-10T02:19:08;12.98;;;8.60;;
61907;SDS011;47864;52.526;19.672;2023-05-10T02:21:12;13.93;;;8.98;;
61907;SDS011;47864;52.526;19.672;2023-05-10T02:23:15;13.20;;;9.07;;
61907;SDS011;47864;52.526;19.672;2023-05-10T02:25:19;12.63;;;8.98;;
61907;SDS011;47864;52.526;19.672;2023-05-10T02:27:22;14.38;;;8.32;;
61907;SDS011;47864;52.526;19.672;2023-05-10T02:29:25;11.45;;;8.52;;
61907;SDS011;47864;52.526;19.672;2023-05-10T02:31:30;11.43;;;8.50;;
61907;SDS011;47864;52.526;19.672;2023-05-10T02:33:33;14.07;;;8.18;;
61907;SDS011;47864;52.526;19.672;2023-05-10T02:35:35;14.43;;;8.77;;
61907;SDS011;47864;52.526;19.672;2023-05-10T02:37:39;12.32;;;8.43;;
61907;SDS011;47864;52.526;19.672;2023-05-10T02:39:41;15.55;;;9.52;;
61907;SDS011;47864;52.526;19.672;2023-05-10T02:41:42;17.63;;;9.00;;
61907;SDS011;47864;52.526;19.672;2023-05-10T02:45:48;14.45;;;9.25;;
61907;SDS011;47864;52.526;19.672;2023-05-10T02:47:50;13.55;;;8.65;;
61907;SDS011;47864;52.526;19.672;2023-05-10T02:49:52;13.82;;;9.15;;
61907;SDS011;47864;52.526;19.672;2023-05-10T02:51:55;13.10;;;8.95;;
61907;SDS011;47864;52.526;19.672;2023-05-10T02:54:06;12.70;;;8.13;;
61907;SDS011;47864;52.526;19.672;2023-05-10T02:56:14;11.75;;;7.70;;
61907;SDS011;47864;52.526;19.672;2023-05-10T02:58:20;11.73;;;8.27;;
61907;SDS011;47864;52.526;19.672;2023-05-10T03:00:23;15.68;;;8.82;;
61907;SDS011;47864;52.526;19.672;2023-05-10T03:02:25;13.57;;;8.60;;
61907;SDS011;47864;52.526;19.672;2023-05-10T03:04:27;12.70;;;7.95;;
61907;SDS011;47864;52.526;19.672;2023-05-10T03:06:29;11.90;;;7.78;;
61907;SDS011;47864;52.526;19.672;2023-05-10T03:08:30;15.25;;;8.65;;
61907;SDS011;47864;52.526;19.672;2023-05-10T03:10:32;13.98;;;9.23;;
61907;SDS011;47864;52.526;19.672;2023-05-10T03:19:48;12.82;;;8.15;;
61907;SDS011;47864;52.526;19.672;2023-05-10T03:21:56;13.02;;;8.00;;
61907;SDS011;47864;52.526;19.672;2023-05-10T03:24:09;13.38;;;8.45;;
61907;SDS011;47864;52.526;19.672;2023-05-10T03:26:15;14.18;;;9.50;;
61907;SDS011;47864;52.526;19.672;2023-05-10T03:28:21;13.40;;;8.65;;
61907;SDS011;47864;52.526;19.672;2023-05-10T03:30:26;15.50;;;8.85;;
61907;SDS011;47864;52.526;19.672;2023-05-10T03:32:29;14.55;;;9.55;;
61907;SDS011;47864;52.526;19.672;2023-05-10T03:34:31;14.68;;;9.55;;
61907;SDS011;47864;52.526;19.672;2023-05-10T03:36:32;17.45;;;9.25;;
61907;SDS011;47864;52.526;19.672;2023-05-10T03:38:33;19.50;;;10.10;;
61907;SDS011;47864;52.526;19.672;2023-05-10T03:40:35;16.08;;;9.88;;
61907;SDS011;47864;52.526;19.672;2023-05-10T03:42:37;16.27;;;9.10;;
61907;SDS011;47864;52.526;19.672;2023-05-10T03:44:39;14.10;;;8.18;;
61907;SDS011;47864;52.526;19.672;2023-05-10T03:46:41;14.07;;;8.80;;
61907;SDS011;47864;52.526;19.672;2023-05-10T03:48:42;11.48;;;8.15;;
61907;SDS011;47864;52.526;19.672;2023-05-10T03:50:44;16.08;;;8.30;;
61907;SDS011;47864;52.526;19.672;2023-05-10T03:52:45;14.55;;;8.40;;
61907;SDS011;47864;52.526;19.672;2023-05-10T03:54:47;14.48;;;8.27;;
61907;SDS011;47864;52.526;19.672;2023-05-10T03:56:48;13.57;;;8.63;;
61907;SDS011;47864;52.526;19.672;2023-05-10T03:58:50;13.57;;;7.90;;
61907;SDS011;47864;52.526;19.672;2023-05-10T04:00:51;11.57;;;7.55;;
61907;SDS011;47864;52.526;19.672;2023-05-10T04:02:53;15.80;;;7.88;;
61907;SDS011;47864;52.526;19.672;2023-05-10T04:04:54;11.18;;;7.18;;
61907;SDS011;47864;52.526;19.672;2023-05-10T04:06:56;12.02;;;7.47;;
61907;SDS011;47864;52.526;19.672;2023-05-10T04:08:57;13.32;;;7.43;;
61907;SDS011;47864;52.526;19.672;2023-05-10T04:11:06;16.40;;;7.07;;
61907;SDS011;47864;52.526;19.672;2023-05-10T04:13:07;15.00;;;7.95;;
61907;SDS011;47864;52.526;19.672;2023-05-10T04:15:09;11.18;;;6.78;;
61907;SDS011;47864;52.526;19.672;2023-05-10T04:17:10;9.95;;;6.75;;
61907;SDS011;47864;52.526;19.672;2023-05-10T04:19:12;10.20;;;6.43;;
61907;SDS011;47864;52.526;19.672;2023-05-10T04:21:14;11.15;;;5.95;;
61907;SDS011;47864;52.526;19.672;2023-05-10T04:23:16;10.65;;;6.57;;
61907;SDS011;47864;52.526;19.672;2023-05-10T04:25:17;9.93;;;6.00;;
61907;SDS011;47864;52.526;19.672;2023-05-10T04:27:19;11.38;;;6.40;;
61907;SDS011;47864;52.526;19.672;2023-05-10T04:29:20;12.00;;;6.03;;
61907;SDS011;47864;52.526;19.672;2023-05-10T04:31:22;11.13;;;6.05;;
61907;SDS011;47864;52.526;19.672;2023-05-10T04:33:23;11.77;;;6.43;;
61907;SDS011;47864;52.526;19.672;2023-05-10T04:35:25;26.50;;;6.85;;
61907;SDS011;47864;52.526;19.672;2023-05-10T04:37:26;11.32;;;6.25;;
61907;SDS011;47864;52.526;19.672;2023-05-10T04:39:28;12.90;;;6.43;;
61907;SDS011;47864;52.526;19.672;2023-05-10T04:41:29;11.43;;;6.35;;
61907;SDS011;47864;52.526;19.672;2023-05-10T04:43:31;12.68;;;5.82;;
61907;SDS011;47864;52.526;19.672;2023-05-10T04:45:32;11.15;;;5.90;;
61907;SDS011;47864;52.526;19.672;2023-05-10T04:47:34;12.52;;;5.57;;
61907;SDS011;47864;52.526;19.672;2023-05-10T04:49:36;12.63;;;5.82;;
61907;SDS011;47864;52.526;19.672;2023-05-10T04:51:37;9.45;;;5.07;;
61907;SDS011;47864;52.526;19.672;2023-05-10T04:53:39;10.73;;;5.57;;
61907;SDS011;47864;52.526;19.672;2023-05-10T04:55:42;10.10;;;5.70;;
61907;SDS011;47864;52.526;19.672;2023-05-10T04:57:43;10.50;;;5.63;;
61907;SDS011;47864;52.526;19.672;2023-05-10T04:59:45;11.32;;;5.60;;
61907;SDS011;47864;52.526;19.672;2023-05-10T05:01:49;9.23;;;5.57;;
61907;SDS011;47864;52.526;19.672;2023-05-10T05:03:50;7.55;;;5.10;;
61907;SDS011;47864;52.526;19.672;2023-05-10T05:05:52;11.10;;;5.90;;
61907;SDS011;47864;52.526;19.672;2023-05-10T05:07:53;8.50;;;5.43;;
61907;SDS011;47864;52.526;19.672;2023-05-10T05:09:55;11.65;;;5.65;;
61907;SDS011;47864;52.526;19.672;2023-05-10T05:11:57;9.30;;;5.32;;
61907;SDS011;47864;52.526;19.672;2023-05-10T05:13:59;10.07;;;4.82;;
61907;SDS011;47864;52.526;19.672;2023-05-10T05:16:01;8.63;;;5.18;;
61907;SDS011;47864;52.526;19.672;2023-05-10T05:18:03;10.20;;;4.85;;
61907;SDS011;47864;52.526;19.672;2023-05-10T05:20:05;8.93;;;5.15;;
61907;SDS011;47864;52.526;19.672;2023-05-10T05:22:07;13.98;;;5.38;;
61907;SDS011;47864;52.526;19.672;2023-05-10T05:24:08;10.77;;;4.80;;
61907;SDS011;47864;52.526;19.672;2023-05-10T05:26:10;7.78;;;4.95;;
61907;SDS011;47864;52.526;19.672;2023-05-10T05:28:12;8.27;;;5.20;;
61907;SDS011;47864;52.526;19.672;2023-05-10T05:30:13;7.95;;;5.28;;
61907;SDS011;47864;52.526;19.672;2023-05-10T05:32:15;8.77;;;4.68;;
61907;SDS011;47864;52.526;19.672;2023-05-10T05:34:17;9.25;;;5.18;;
61907;SDS011;47864;52.526;19.672;2023-05-10T05:36:18;9.57;;;4.85;;
61907;SDS011;47864;52.526;19.672;2023-05-10T05:38:20;9.80;;;5.35;;
61907;SDS011;47864;52.526;19.672;2023-05-10T05:40:21;13.82;;;6.68;;
61907;SDS011;47864;52.526;19.672;2023-05-10T05:42:23;10.27;;;5.40;;
61907;SDS011;47864;52.526;19.672;2023-05-10T05:44:24;11.30;;;5.38;;
61907;SDS011;47864;52.526;19.672;2023-05-10T05:46:26;10.00;;;5.13;;
61907;SDS011;47864;52.526;19.672;2023-05-10T05:48:29;8.45;;;5.20;;
61907;SDS011;47864;52.526;19.672;2023-05-10T05:50:31;9.88;;;5.38;;
61907;SDS011;47864;52.526;19.672;2023-05-10T05:52:32;11.25;;;5.30;;
61907;SDS011;47864;52.526;19.672;2023-05-10T05:54:34;8.27;;;4.80;;
61907;SDS011;47864;52.526;19.672;2023-05-10T05:56:36;6.82;;;4.70;;
61907;SDS011;47864;52.526;19.672;2023-05-10T05:58:37;7.57;;;4.97;;
61907;SDS011;47864;52.526;19.672;2023-05-10T06:00:39;8.68;;;4.95;;
61907;SDS011;47864;52.526;19.672;2023-05-10T06:02:40;10.45;;;4.90;;
61907;SDS011;47864;52.526;19.672;2023-05-10T06:04:42;10.32;;;4.35;;
61907;SDS011;47864;52.526;19.672;2023-05-10T06:06:45;10.90;;;5.05;;
61907;SDS011;47864;52.526;19.672;2023-05-10T06:08:46;7.65;;;4.43;;
61907;SDS011;47864;52.526;19.672;2023-05-10T06:10:48;8.77;;;4.50;;
61907;SDS011;47864;52.526;19.672;2023-05-10T06:12:49;6.85;;;4.22;;
61907;SDS011;47864;52.526;19.672;2023-05-10T06:14:51;7.28;;;4.57;;
61907;SDS011;47864;52.526;19.672;2023-05-10T06:16:52;6.68;;;4.30;;
61907;SDS011;47864;52.526;19.672;2023-05-10T06:18:54;8.25;;;4.35;;
61907;SDS011;47864;52.526;19.672;2023-05-10T06:20:56;6.28;;;3.85;;
61907;SDS011;47864;52.526;19.672;2023-05-10T06:22:57;7.70;;;3.72;;
61907;SDS011;47864;52.526;19.672;2023-05-10T06:24:59;11.30;;;4.53;;
61907;SDS011;47864;52.526;19.672;2023-05-10T06:27:00;9.68;;;4.10;;
61907;SDS011;47864;52.526;19.672;2023-05-10T06:29:02;11.57;;;5.15;;
61907;SDS011;47864;52.526;19.672;2023-05-10T06:31:04;9.95;;;5.40;;
61907;SDS011;47864;52.526;19.672;2023-05-10T06:33:06;6.57;;;4.32;;
61907;SDS011;47864;52.526;19.672;2023-05-10T06:35:07;7.57;;;4.18;;
61907;SDS011;47864;52.526;19.672;2023-05-10T06:37:09;11.10;;;4.53;;
61907;SDS011;47864;52.526;19.672;2023-05-10T06:39:11;15.60;;;5.07;;
61907;SDS011;47864;52.526;19.672;2023-05-10T06:41:12;7.05;;;3.80;;
61907;SDS011;47864;52.526;19.672;2023-05-10T06:43:14;9.35;;;3.75;;
61907;SDS011;47864;52.526;19.672;2023-05-10T06:45:16;9.73;;;3.90;;
61907;SDS011;47864;52.526;19.672;2023-05-10T06:47:18;6.60;;;3.30;;
61907;SDS011;47864;52.526;19.672;2023-05-10T06:49:19;9.63;;;4.03;;
61907;SDS011;47864;52.526;19.672;2023-05-10T06:51:21;11.50;;;3.80;;
61907;SDS011;47864;52.526;19.672;2023-05-10T06:53:22;7.57;;;3.90;;
61907;SDS011;47864;52.526;19.672;2023-05-10T06:55:24;7.95;;;3.38;;
61907;SDS011;47864;52.526;19.672;2023-05-10T06:57:27;5.25;;;2.85;;
61907;SDS011;47864;52.526;19.672;2023-05-10T06:59:32;5.80;;;3.05;;
61907;SDS011;47864;52.526;19.672;2023-05-10T07:01:34;6.75;;;2.92;;
61907;SDS011;47864;52.526;19.672;2023-05-10T07:03:36;6.13;;;2.95;;
61907;SDS011;47864;52.526;19.672;2023-05-10T07:05:37;4.78;;;2.70;;
61907;SDS011;47864;52.526;19.672;2023-05-10T07:07:39;7.15;;;2.83;;
61907;SDS011;47864;52.526;19.672;2023-05-10T07:09:41;6.03;;;3.17;;
61907;SDS011;47864;52.526;19.672;2023-05-10T07:11:42;4.75;;;2.88;;
61907;SDS011;47864;52.526;19.672;2023-05-10T07:13:43;4.38;;;2.53;;
61907;SDS011;47864;52.526;19.672;2023-05-10T07:15:45;7.93;;;2.70;;
61907;SDS011;47864;52.526;19.672;2023-05-10T07:17:46;7.30;;;2.70;;
61907;SDS011;47864;52.526;19.672;2023-05-10T07:19:48;6.28;;;2.38;;
61907;SDS011;47864;52.526;19.672;2023-05-10T07:21:50;5.05;;;2.20;;
61907;SDS011;47864;52.526;19.672;2023-05-10T07:23:51;7.03;;;2.33;;
61907;SDS011;47864;52.526;19.672;2023-05-10T07:25:53;7.47;;;2.53;;
61907;SDS011;47864;52.526;19.672;2023-05-10T07:27:54;8.15;;;2.53;;
61907;SDS011;47864;52.526;19.672;2023-05-10T07:29:56;5.63;;;2.53;;
61907;SDS011;47864;52.526;19.672;2023-05-10T07:31:57;4.30;;;2.30;;
61907;SDS011;47864;52.526;19.672;2023-05-10T07:33:59;6.07;;;2.80;;
61907;SDS011;47864;52.526;19.672;2023-05-10T07:36:00;6.43;;;2.97;;
61907;SDS011;47864;52.526;19.672;2023-05-10T07:38:02;5.00;;;2.65;;
61907;SDS011;47864;52.526;19.672;2023-05-10T07:40:04;4.80;;;2.65;;
61907;SDS011;47864;52.526;19.672;2023-05-10T07:42:06;7.90;;;2.63;;
61907;SDS011;47864;52.526;19.672;2023-05-10T07:44:07;5.90;;;2.40;;
61907;SDS011;47864;52.526;19.672;2023-05-10T07:46:09;12.95;;;3.22;;
61907;SDS011;47864;52.526;19.672;2023-05-10T07:48:10;4.80;;;2.42;;
61907;SDS011;47864;52.526;19.672;2023-05-10T07:50:12;8.70;;;2.72;;
61907;SDS011;47864;52.526;19.672;2023-05-10T07:52:13;6.65;;;2.42;;
61907;SDS011;47864;52.526;19.672;2023-05-10T07:54:15;8.68;;;2.80;;
61907;SDS011;47864;52.526;19.672;2023-05-10T07:56:38;6.50;;;2.40;;
61907;SDS011;47864;52.526;19.672;2023-05-10T07:58:38;6.10;;;2.83;;
61907;SDS011;47864;52.526;19.672;2023-05-10T08:00:40;9.77;;;3.10;;
61907;SDS011;47864;52.526;19.672;2023-05-10T08:02:41;7.53;;;2.50;;
61907;SDS011;47864;52.526;19.672;2023-05-10T08:04:43;9.30;;;2.63;;
61907;SDS011;47864;52.526;19.672;2023-05-10T08:06:44;5.18;;;2.30;;
61907;SDS011;47864;52.526;19.672;2023-05-10T08:08:46;9.35;;;2.67;;
61907;SDS011;47864;52.526;19.672;2023-05-10T08:10:48;9.02;;;2.63;;
61907;SDS011;47864;52.526;19.672;2023-05-10T08:12:50;4.43;;;2.10;;
61907;SDS011;47864;52.526;19.672;2023-05-10T08:14:51;6.68;;;2.42;;
61907;SDS011;47864;52.526;19.672;2023-05-10T08:16:56;6.45;;;2.17;;
61907;SDS011;47864;52.526;19.672;2023-05-10T08:18:57;5.95;;;2.40;;
61907;SDS011;47864;52.526;19.672;2023-05-10T08:20:59;6.72;;;2.10;;
61907;SDS011;47864;52.526;19.672;2023-05-10T08:23:00;6.72;;;2.25;;
61907;SDS011;47864;52.526;19.672;2023-05-10T08:25:02;6.53;;;2.17;;
61907;SDS011;47864;52.526;19.672;2023-05-10T08:27:07;16.02;;;2.40;;
61907;SDS011;47864;52.526;19.672;2023-05-10T08:29:09;6.95;;;2.13;;
61907;SDS011;47864;52.526;19.672;2023-05-10T08:31:10;10.80;;;2.00;;
61907;SDS011;47864;52.526;19.672;2023-05-10T08:33:12;5.35;;;2.20;;
61907;SDS011;47864;52.526;19.672;2023-05-10T08:35:13;7.15;;;2.53;;
61907;SDS011;47864;52.526;19.672;2023-05-10T08:37:15;4.63;;;2.00;;
61907;SDS011;47864;52.526;19.672;2023-05-10T08:39:17;8.27;;;1.90;;
61907;SDS011;47864;52.526;19.672;2023-05-10T08:41:30;4.25;;;2.08;;
61907;SDS011;47864;52.526;19.672;2023-05-10T08:43:36;7.93;;;1.95;;
61907;SDS011;47864;52.526;19.672;2023-05-10T08:45:39;6.38;;;2.72;;
61907;SDS011;47864;52.526;19.672;2023-05-10T08:47:41;4.93;;;2.00;;
61907;SDS011;47864;52.526;19.672;2023-05-10T08:49:44;4.43;;;2.10;;
61907;SDS011;47864;52.526;19.672;2023-05-10T08:51:53;7.95;;;2.38;;
61907;SDS011;47864;52.526;19.672;2023-05-10T08:53:56;3.53;;;1.77;;
61907;SDS011;47864;52.526;19.672;2023-05-10T08:55:57;4.22;;;1.83;;
61907;SDS011;47864;52.526;19.672;2023-05-10T08:57:59;3.47;;;1.77;;
61907;SDS011;47864;52.526;19.672;2023-05-10T09:00:01;6.70;;;2.67;;
61907;SDS011;47864;52.526;19.672;2023-05-10T09:02:03;3.35;;;2.40;;
61907;SDS011;47864;52.526;19.672;2023-05-10T09:04:06;5.03;;;2.33;;
61907;SDS011;47864;52.526;19.672;2023-05-10T09:06:07;5.13;;;2.13;;
61907;SDS011;47864;52.526;19.672;2023-05-10T09:08:09;5.82;;;2.03;;
61907;SDS011;47864;52.526;19.672;2023-05-10T09:10:11;5.85;;;2.60;;
61907;SDS011;47864;52.526;19.672;2023-05-10T09:12:14;8.00;;;2.22;;
61907;SDS011;47864;52.526;19.672;2023-05-10T09:14:16;6.68;;;2.13;;
61907;SDS011;47864;52.526;19.672;2023-05-10T09:16:18;8.00;;;1.92;;
61907;SDS011;47864;52.526;19.672;2023-05-10T09:18:22;4.53;;;2.10;;
61907;SDS011;47864;52.526;19.672;2023-05-10T09:20:27;6.47;;;2.10;;
61907;SDS011;47864;52.526;19.672;2023-05-10T09:22:32;4.28;;;1.80;;
61907;SDS011;47864;52.526;19.672;2023-05-10T09:24:34;4.38;;;2.00;;
61907;SDS011;47864;52.526;19.672;2023-05-10T09:26:39;5.57;;;2.20;;
61907;SDS011;47864;52.526;19.672;2023-05-10T09:28:51;8.45;;;2.33;;
61907;SDS011;47864;52.526;19.672;2023-05-10T09:30:53;6.97;;;1.95;;
61907;SDS011;47864;52.526;19.672;2023-05-10T09:32:55;3.17;;;1.98;;
61907;SDS011;47864;52.526;19.672;2023-05-10T09:34:57;7.35;;;2.10;;
61907;SDS011;47864;52.526;19.672;2023-05-10T09:37:07;6.75;;;2.22;;
61907;SDS011;47864;52.526;19.672;2023-05-10T09:39:09;3.55;;;1.92;;
61907;SDS011;47864;52.526;19.672;2023-05-10T09:41:17;4.80;;;2.10;;
61907;SDS011;47864;52.526;19.672;2023-05-10T09:43:19;4.80;;;2.15;;
61907;SDS011;47864;52.526;19.672;2023-05-10T09:45:22;6.25;;;2.00;;
61907;SDS011;47864;52.526;19.672;2023-05-10T09:49:26;4.63;;;3.05;;
61907;SDS011;47864;52.526;19.672;2023-05-10T09:51:28;7.43;;;3.38;;
61907;SDS011;47864;52.526;19.672;2023-05-10T09:53:29;7.75;;;2.88;;
61907;SDS011;47864;52.526;19.672;2023-05-10T09:57:37;6.65;;;2.35;;
61907;SDS011;47864;52.526;19.672;2023-05-10T09:59:42;8.70;;;3.17;;
61907;SDS011;47864;52.526;19.672;2023-05-10T10:01:49;6.38;;;2.70;;
61907;SDS011;47864;52.526;19.672;2023-05-10T10:03:51;5.05;;;2.20;;
61907;SDS011;47864;52.526;19.672;2023-05-10T10:05:54;7.20;;;2.05;;
61907;SDS011;47864;52.526;19.672;2023-05-10T10:07:56;6.63;;;2.40;;
61907;SDS011;47864;52.526;19.672;2023-05-10T10:09:59;4.40;;;2.20;;
61907;SDS011;47864;52.526;19.672;2023-05-10T10:12:01;6.45;;;2.35;;
61907;SDS011;47864;52.526;19.672;2023-05-10T10:14:04;4.22;;;2.10;;
61907;SDS011;47864;52.526;19.672;2023-05-10T10:16:06;8.02;;;3.35;;
61907;SDS011;47864;52.526;19.672;2023-05-10T10:18:12;7.13;;;3.22;;
61907;SDS011;47864;52.526;19.672;2023-05-10T10:20:15;4.15;;;1.98;;
61907;SDS011;47864;52.526;19.672;2023-05-10T10:22:18;5.65;;;2.28;;
61907;SDS011;47864;52.526;19.672;2023-05-10T10:24:19;6.32;;;2.70;;
61907;SDS011;47864;52.526;19.672;2023-05-10T10:26:21;7.38;;;2.92;;
61907;SDS011;47864;52.526;19.672;2023-05-10T10:28:28;5.40;;;2.15;;
61907;SDS011;47864;52.526;19.672;2023-05-10T10:30:43;8.07;;;2.20;;
61907;SDS011;47864;52.526;19.672;2023-05-10T10:32:55;3.92;;;1.85;;
61907;SDS011;47864;52.526;19.672;2023-05-10T10:35:27;3.53;;;2.22;;
61907;SDS011;47864;52.526;19.672;2023-05-10T10:37:43;5.88;;;2.25;;
61907;SDS011;47864;52.526;19.672;2023-05-10T10:39:47;4.75;;;2.28;;
61907;SDS011;47864;52.526;19.672;2023-05-10T10:41:53;6.18;;;1.95;;
61907;SDS011;47864;52.526;19.672;2023-05-10T10:46:23;5.80;;;2.22;;
61907;SDS011;47864;52.526;19.672;2023-05-10T10:48:24;6.68;;;2.30;;
61907;SDS011;47864;52.526;19.672;2023-05-10T10:50:26;6.30;;;1.70;;
61907;SDS011;47864;52.526;19.672;2023-05-10T10:52:28;3.70;;;1.52;;
61907;SDS011;47864;52.526;19.672;2023-05-10T10:54:32;7.97;;;1.88;;
61907;SDS011;47864;52.526;19.672;2023-05-10T10:56:34;5.18;;;2.10;;
61907;SDS011;47864;52.526;19.672;2023-05-10T10:58:37;5.60;;;1.90;;
61907;SDS011;47864;52.526;19.672;2023-05-10T11:00:39;6.93;;;2.08;;
61907;SDS011;47864;52.526;19.672;2023-05-10T11:02:44;3.95;;;2.03;;
61907;SDS011;47864;52.526;19.672;2023-05-10T11:04:47;5.55;;;2.08;;
61907;SDS011;47864;52.526;19.672;2023-05-10T11:06:48;9.65;;;1.90;;
61907;SDS011;47864;52.526;19.672;2023-05-10T11:08:50;4.10;;;1.90;;
61907;SDS011;47864;52.526;19.672;2023-05-10T11:10:54;4.45;;;1.70;;
61907;SDS011;47864;52.526;19.672;2023-05-10T11:13:05;5.10;;;1.70;;
61907;SDS011;47864;52.526;19.672;2023-05-10T11:15:08;7.18;;;2.10;;
61907;SDS011;47864;52.526;19.672;2023-05-10T11:17:26;4.13;;;1.50;;
61907;SDS011;47864;52.526;19.672;2023-05-10T11:19:28;7.72;;;1.80;;
61907;SDS011;47864;52.526;19.672;2023-05-10T11:21:30;5.93;;;2.00;;
61907;SDS011;47864;52.526;19.672;2023-05-10T11:23:47;9.30;;;1.65;;
61907;SDS011;47864;52.526;19.672;2023-05-10T11:25:52;5.93;;;1.70;;
61907;SDS011;47864;52.526;19.672;2023-05-10T11:27:55;7.13;;;2.13;;
61907;SDS011;47864;52.526;19.672;2023-05-10T11:29:56;3.47;;;1.67;;
61907;SDS011;47864;52.526;19.672;2023-05-10T11:31:58;5.80;;;1.90;;
61907;SDS011;47864;52.526;19.672;2023-05-10T11:34:01;5.15;;;1.80;;
61907;SDS011;47864;52.526;19.672;2023-05-10T11:36:02;7.80;;;2.42;;
61907;SDS011;47864;52.526;19.672;2023-05-10T11:38:07;15.68;;;1.83;;
61907;SDS011;47864;52.526;19.672;2023-05-10T11:40:11;8.25;;;2.20;;
61907;SDS011;47864;52.526;19.672;2023-05-10T11:42:13;4.50;;;1.55;;
61907;SDS011;47864;52.526;19.672;2023-05-10T11:44:14;7.75;;;1.75;;
61907;SDS011;47864;52.526;19.672;2023-05-10T11:46:17;5.38;;;2.10;;
61907;SDS011;47864;52.526;19.672;2023-05-10T11:48:20;3.92;;;1.98;;
61907;SDS011;47864;52.526;19.672;2023-05-10T11:50:22;6.38;;;1.75;;
61907;SDS011;47864;52.526;19.672;2023-05-10T11:52:24;5.88;;;2.00;;
61907;SDS011;47864;52.526;19.672;2023-05-10T11:54:25;7.75;;;2.10;;
61907;SDS011;47864;52.526;19.672;2023-05-10T11:56:26;5.70;;;2.30;;
61907;SDS011;47864;52.526;19.672;2023-05-10T11:58:28;6.85;;;1.73;;
61907;SDS011;47864;52.526;19.672;2023-05-10T12:00:29;7.40;;;2.35;;
61907;SDS011;47864;52.526;19.672;2023-05-10T12:02:32;5.65;;;2.00;;
61907;SDS011;47864;52.526;19.672;2023-05-10T12:04:33;5.95;;;2.20;;
61907;SDS011;47864;52.526;19.672;2023-05-10T12:06:37;3.97;;;1.90;;
61907;SDS011;47864;52.526;19.672;2023-05-10T12:08:45;4.97;;;2.00;;
61907;SDS011;47864;52.526;19.672;2023-05-10T12:10:47;7.03;;;2.30;;
61907;SDS011;47864;52.526;19.672;2023-05-10T12:12:49;6.88;;;1.92;;
61907;SDS011;47864;52.526;19.672;2023-05-10T12:14:53;6.38;;;1.77;;
61907;SDS011;47864;52.526;19.672;2023-05-10T12:16:56;6.95;;;2.20;;
61907;SDS011;47864;52.526;19.672;2023-05-10T12:18:59;5.15;;;1.98;;
61907;SDS011;47864;52.526;19.672;2023-05-10T12:21:03;4.70;;;1.75;;
61907;SDS011;47864;52.526;19.672;2023-05-10T12:23:05;10.25;;;2.28;;
61907;SDS011;47864;52.526;19.672;2023-05-10T12:25:09;6.05;;;2.00;;
61907;SDS011;47864;52.526;19.672;2023-05-10T12:27:10;5.70;;;2.20;;
61907;SDS011;47864;52.526;19.672;2023-05-10T12:29:30;6.45;;;2.13;;